Terminal Aerodrome Forecast
Issued by NWS

Current Version | Previous Version | Text Only | Print | Product List | Glossary On
Versions: 1 2 3 4 5 6 7 8 9 10 11 12 13 14 15 16 17 18
142
FTAK31 PAJN 281140
TAFASI
TAF
PASI 281140Z 2812/2912 11003KT P6SM VCSH SCT018 OVC035
      TEMPO 2812/2816 -SHRA BKN018 OVC025
     FM281600 21005KT P6SM -SHRA BKN025 OVC040
     FM290000 21006KT P6SM VCSH BKN030 OVC050
     FM290600 VRB04KT P6SM BKN070 OVC090=

USA.gov is the U.S. government's official web portal to all federal, state and local government web resources and services.